aviador You're here:

RJOO Decoded Metar

OSAKA in JAPAN
Report Time2016-07-01 02:00:00
UTC Time2016-07-01 02:30:58
Flight Rules vfr VFR
Wind230° at 04 kt
W.Decomp.*RWY 32: 0.5 kt HW 4 kt LCW
W.Rank230° ranks 2
Current wind is below 230° avg. (6.6)
Visibility9999 m
Phenomena:N/A
Clouds:Few 015 Hf
Scattered 030 Hf
Expected CloudBase > 3,200 ft AGL from Temp-Dew spread
CeilingNone
Temp29°C (ISA +14)
Dew Point21°C (62% RH)
Heat Index31.3°C
QNH1014 hPa
Density Alt1,962 ft
Elevation49 ft
Report Wrong Elevation
Raw Report
METAR RJOO 010200Z 23004KT 170V310 9999 FEW015 SCT030 29/21 Q1014 RMK
1CU015 4CU030 A2994=

Extra information for RJOO:More info

Metar Taf Metar & Taf Last 4 Metars F.Rules Stats Wind Profile Meteogram Temp Stats Airport Information Weather charts Add Link Nearby VenuesMetar ALERT Operation Metar Decoded Social comments